createdAt,value
2018-04-15T00:01:40.449Z,31.90
2018-04-15T00:04:07.941Z,32.73
2018-04-15T00:06:35.422Z,31.50
2018-04-15T00:09:03.671Z,33.80
2018-04-15T00:11:31.148Z,33.47
2018-04-15T00:13:59.394Z,34.17
2018-04-15T00:16:26.866Z,33.13
2018-04-15T00:18:55.126Z,33.77
2018-04-15T00:21:22.600Z,31.23
2018-04-15T00:23:50.093Z,31.77
2018-04-15T00:26:18.323Z,35.07
2018-04-15T00:28:45.858Z,34.47
2018-04-15T00:31:13.333Z,35.43
2018-04-15T00:33:40.834Z,36.90
2018-04-15T00:36:09.068Z,36.57
2018-04-15T00:38:36.550Z,36.47
2018-04-15T00:41:04.015Z,35.50
2018-04-15T00:43:31.491Z,35.13
2018-04-15T00:45:59.725Z,39.87
2018-04-15T00:48:27.198Z,40.73
2018-04-15T00:50:54.679Z,40.93
2018-04-15T00:53:22.923Z,43.87
2018-04-15T00:55:50.392Z,42.30
2018-04-15T00:58:17.875Z,44.77
2018-04-15T01:00:46.123Z,44.20
2018-04-15T01:03:13.944Z,43.40
2018-04-15T01:05:41.412Z,42.50
2018-04-15T01:08:08.881Z,41.20
2018-04-15T01:10:36.369Z,44.90
2018-04-15T01:13:03.848Z,41.17
2018-04-15T01:15:32.093Z,43.20
2018-04-15T01:17:59.580Z,39.90
2018-04-15T01:20:27.835Z,41.40
2018-04-15T01:22:55.307Z,38.70
2018-04-15T01:25:22.777Z,42.00
2018-04-15T01:27:51.019Z,42.77
2018-04-15T01:30:19.230Z,40.70
2018-04-15T01:32:47.460Z,42.37
2018-04-15T01:35:14.941Z,39.40
2018-04-15T01:37:42.416Z,41.00
2018-04-15T01:40:10.667Z,42.37
2018-04-15T01:42:38.144Z,43.20
2018-04-15T01:45:05.634Z,43.27
2018-04-15T01:47:33.878Z,41.63
2018-04-15T01:50:01.367Z,42.33
2018-04-15T01:52:28.832Z,41.80
2018-04-15T01:54:56.323Z,40.57
2018-04-15T01:57:23.788Z,40.60
2018-04-15T01:59:51.274Z,41.30
2018-04-15T02:02:18.797Z,42.73
2018-04-15T02:04:46.281Z,42.20
2018-04-15T02:07:13.772Z,39.70
2018-04-15T02:09:42.022Z,43.67
2018-04-15T02:12:09.490Z,43.27
2018-04-15T02:14:37.737Z,41.67
2018-04-15T02:17:05.209Z,40.97
2018-04-15T02:19:32.690Z,44.27
2018-04-15T02:22:00.923Z,46.20
2018-04-15T02:24:28.393Z,43.67
2018-04-15T02:26:55.862Z,43.40
2018-04-15T02:29:23.343Z,44.00
2018-04-15T02:31:51.593Z,45.57
2018-04-15T02:34:19.069Z,42.33
2018-04-15T02:36:47.311Z,45.40
2018-04-15T02:39:14.789Z,43.10
2018-04-15T02:41:42.257Z,42.90
2018-04-15T02:44:09.744Z,43.53
2018-04-15T02:46:38.024Z,42.47
2018-04-15T02:49:05.466Z,46.93
2018-04-15T02:51:33.702Z,43.90
2018-04-15T02:54:01.183Z,47.10
2018-04-15T02:56:28.660Z,44.90
2018-04-15T02:58:56.926Z,47.13
2018-04-15T03:01:24.398Z,49.20
2018-04-15T03:03:52.639Z,45.43
2018-04-15T03:06:20.116Z,47.27
2018-04-15T03:08:47.575Z,46.90
2018-04-15T03:11:15.059Z,46.17
2018-04-15T03:13:43.289Z,50.50
2018-04-15T03:16:10.769Z,48.70
2018-04-15T03:18:38.262Z,48.27
2018-04-15T03:21:06.041Z,47.47
2018-04-15T03:23:33.504Z,47.90
2018-04-15T03:26:00.991Z,47.87
2018-04-15T03:28:28.451Z,49.17
2018-04-15T03:30:55.943Z,48.53
2018-04-15T03:33:24.168Z,48.07
2018-04-15T03:35:51.641Z,47.87
2018-04-15T03:38:19.116Z,49.50
2018-04-15T03:40:46.594Z,49.70
2018-04-15T03:43:14.831Z,45.20
2018-04-15T03:45:42.313Z,44.40
2018-04-15T03:48:09.785Z,46.33
2018-04-15T03:50:38.026Z,45.40
2018-04-15T03:53:05.501Z,47.27
2018-04-15T03:55:32.981Z,47.90
2018-04-15T03:58:01.210Z,48.13
2018-04-15T04:00:28.682Z,46.57
2018-04-15T04:02:56.158Z,47.30
2018-04-15T04:05:23.657Z,46.87
2018-04-15T04:07:51.128Z,47.93
2018-04-15T04:10:18.614Z,47.80
2018-04-15T04:12:46.088Z,45.60
2018-04-15T04:15:13.569Z,45.53
2018-04-15T04:17:53.876Z,46.20
2018-04-15T04:20:33.930Z,47.03
2018-04-15T04:23:13.249Z,48.20
2018-04-15T04:25:46.766Z,47.83
2018-04-15T04:28:14.233Z,43.23
2018-04-15T04:30:42.526Z,49.17
2018-04-15T04:33:09.998Z,47.83
2018-04-15T04:35:38.254Z,47.37
2018-04-15T04:38:05.727Z,45.70
2018-04-15T04:40:33.226Z,46.37
2018-04-15T04:43:00.696Z,47.37
2018-04-15T04:45:28.183Z,46.37
2018-04-15T04:47:55.647Z,47.43
2018-04-15T04:50:23.135Z,44.60
2018-04-15T04:52:51.372Z,43.97
2018-04-15T04:55:18.858Z,48.53
2018-04-15T04:57:46.326Z,45.83
2018-04-15T05:00:14.565Z,47.43
2018-04-15T05:02:42.800Z,45.93
2018-04-15T05:05:10.304Z,47.20
2018-04-15T05:07:37.774Z,48.30
2018-04-15T05:10:05.253Z,48.37
2018-04-15T05:12:33.506Z,47.47
2018-04-15T05:15:00.979Z,46.47
2018-04-15T05:17:28.458Z,43.93
2018-04-15T05:19:56.701Z,46.70
2018-04-15T05:22:24.188Z,47.73
2018-04-15T05:24:52.450Z,47.93
2018-04-15T05:27:19.929Z,46.27
2018-04-15T05:29:47.400Z,47.87
2018-04-15T05:32:14.893Z,48.07
2018-04-15T05:34:42.356Z,43.33
2018-04-15T05:37:09.845Z,45.70
2018-04-15T05:42:12.125Z,45.13
2018-04-15T05:44:39.602Z,45.13
2018-04-15T05:47:07.840Z,45.60
2018-04-15T05:49:35.311Z,44.67
2018-04-15T05:52:02.928Z,47.00
2018-04-15T05:54:30.398Z,47.07
2018-04-15T05:56:57.892Z,44.70
2018-04-15T05:59:25.376Z,46.97
2018-04-15T06:01:54.365Z,45.37
2018-04-15T06:04:22.615Z,44.30
2018-04-15T06:06:50.096Z,44.23
2018-04-15T06:09:17.578Z,45.80
2018-04-15T06:11:45.067Z,46.07
2018-04-15T06:14:12.533Z,43.00
2018-04-15T06:16:40.013Z,44.63
2018-04-15T06:19:07.494Z,42.50
2018-04-15T06:21:35.762Z,42.50
2018-04-15T06:24:03.241Z,45.97
2018-04-15T06:26:31.492Z,47.10
2018-04-15T06:28:58.974Z,41.90
2018-04-15T06:31:27.222Z,42.10
2018-04-15T06:33:54.697Z,42.87
2018-04-15T06:36:22.184Z,45.20
2018-04-15T06:38:49.684Z,44.27
2018-04-15T06:41:17.289Z,43.57
2018-04-15T06:43:44.779Z,45.03
2018-04-15T06:46:12.257Z,42.40
2018-04-15T06:48:39.717Z,43.73
2018-04-15T06:51:07.201Z,46.37
2018-04-15T06:53:34.694Z,48.23
2018-04-15T06:56:02.169Z,43.27
2018-04-15T06:58:29.637Z,47.47
2018-04-15T07:00:57.183Z,47.27
2018-04-15T07:03:24.713Z,47.97
2018-04-15T07:05:52.942Z,46.13
2018-04-15T07:08:22.866Z,48.60
2018-04-15T07:10:50.701Z,43.13
2018-04-15T07:13:18.178Z,43.90
2018-04-15T07:15:45.657Z,44.80
2018-04-15T07:18:13.134Z,42.00
2018-04-15T07:20:40.614Z,46.00
2018-04-15T07:23:08.867Z,45.13
2018-04-15T07:25:36.348Z,41.97
2018-04-15T07:28:04.724Z,38.67
2018-04-15T07:30:32.967Z,41.50
2018-04-15T07:33:00.523Z,41.27
2018-04-15T07:35:28.002Z,43.03
2018-04-15T07:37:55.476Z,41.70
2018-04-15T07:40:23.724Z,38.67
2018-04-15T07:42:51.196Z,39.10
2018-04-15T07:45:18.681Z,41.40
2018-04-15T07:47:46.178Z,43.27
2018-04-15T07:50:13.659Z,40.07
2018-04-15T07:52:41.150Z,40.93
2018-04-15T07:55:09.482Z,40.90
2018-04-15T07:57:36.970Z,39.00
2018-04-15T08:00:04.433Z,42.10
2018-04-15T08:02:32.703Z,40.43
2018-04-15T08:05:00.168Z,40.17
2018-04-15T08:07:28.451Z,40.37
2018-04-15T08:09:56.680Z,41.17
2018-04-15T08:12:24.172Z,41.87
2018-04-15T08:14:51.641Z,38.37
2018-04-15T08:17:19.894Z,42.17
2018-04-15T08:19:47.489Z,39.10
2018-04-15T08:22:15.000Z,41.40
2018-04-15T08:24:42.525Z,42.40
2018-04-15T08:27:11.839Z,41.37
2018-04-15T08:29:39.320Z,39.77
2018-04-15T08:32:06.829Z,39.10
2018-04-15T08:34:35.113Z,37.27
2018-04-15T08:37:02.701Z,37.33
2018-04-15T08:39:31.089Z,37.00
2018-04-15T08:41:58.676Z,34.80
2018-04-15T08:44:26.177Z,35.30
2018-04-15T08:46:54.555Z,36.50
2018-04-15T08:49:22.800Z,36.80
2018-04-15T08:51:50.269Z,37.37
2018-04-15T08:54:17.762Z,36.13
2018-04-15T08:56:45.255Z,37.53
2018-04-15T08:59:12.729Z,36.80
2018-04-15T09:01:40.197Z,40.57
2018-04-15T09:04:07.678Z,36.37
2018-04-15T09:06:35.952Z,38.87
2018-04-15T09:09:04.228Z,40.30
2018-04-15T09:11:31.702Z,38.70
2018-04-15T09:13:59.499Z,38.50
2018-04-15T09:16:26.969Z,35.67
2018-04-15T09:18:54.445Z,36.40
2018-04-15T09:21:21.922Z,37.20
2018-04-15T09:23:50.161Z,41.07
2018-04-15T09:26:17.633Z,37.53
2018-04-15T09:28:45.121Z,36.57
2018-04-15T09:31:13.357Z,36.53
2018-04-15T09:33:40.865Z,33.13
2018-04-15T09:36:09.099Z,28.60
2018-04-15T09:38:36.583Z,33.47
2018-04-15T09:41:04.106Z,33.37
2018-04-15T09:43:32.310Z,24.53
2018-04-15T09:45:59.793Z,28.80
2018-04-15T09:48:28.049Z,25.27
2018-04-15T09:50:55.516Z,25.30
2018-04-15T09:53:23.767Z,25.00
2018-04-15T09:55:51.240Z,23.20
2018-04-15T09:58:18.727Z,25.70
2018-04-15T10:00:48.018Z,23.53
2018-04-15T10:03:17.568Z,23.27
2018-04-15T10:05:45.050Z,22.00
2018-04-15T10:08:12.542Z,25.00
2018-04-15T10:10:40.791Z,22.70
2018-04-15T10:13:08.276Z,25.87
2018-04-15T10:15:37.211Z,26.10
2018-04-15T10:18:04.713Z,22.67
2018-04-15T10:20:32.218Z,23.43
2018-04-15T10:22:59.722Z,24.10
2018-04-15T10:25:27.258Z,22.30
2018-04-15T10:27:54.751Z,25.27
2018-04-15T10:30:22.349Z,24.40
2018-04-15T10:32:49.824Z,24.13
2018-04-15T10:35:17.323Z,22.43
2018-04-15T10:37:45.828Z,23.40
2018-04-15T10:40:14.106Z,23.80
2018-04-15T10:42:43.547Z,22.60
2018-04-15T10:45:11.545Z,22.93
2018-04-15T10:47:39.517Z,23.07
2018-04-15T10:50:07.011Z,22.73
2018-04-15T10:52:35.354Z,23.17
2018-04-15T10:55:02.871Z,25.07
2018-04-15T10:57:30.374Z,22.60
2018-04-15T10:59:57.966Z,23.40
2018-04-15T11:02:28.215Z,24.20
2018-04-15T11:04:55.751Z,23.97
2018-04-15T11:07:24.101Z,26.93
2018-04-15T11:09:51.637Z,26.20
2018-04-15T11:12:19.202Z,26.17
2018-04-15T11:14:47.020Z,25.93
2018-04-15T11:17:14.526Z,27.37
2018-04-15T11:19:42.169Z,26.77
2018-04-15T11:22:09.657Z,26.40
2018-04-15T11:24:37.193Z,25.47
2018-04-15T11:27:04.764Z,27.30
2018-04-15T11:29:32.272Z,26.40
2018-04-15T11:32:00.638Z,27.70
2018-04-15T11:34:29.129Z,27.87
2018-04-15T11:36:58.193Z,24.83
2018-04-15T11:39:25.673Z,23.60
2018-04-15T11:41:53.170Z,27.47
2018-04-15T11:44:21.448Z,24.10
2018-04-15T11:46:48.964Z,26.40
2018-04-15T11:49:17.060Z,29.73
2018-04-15T11:51:45.410Z,26.07
2018-04-15T11:54:14.146Z,26.50
2018-04-15T11:56:42.386Z,28.27
2018-04-15T11:59:09.891Z,31.73
2018-04-15T12:01:37.379Z,29.30
2018-04-15T12:04:05.709Z,28.37
2018-04-15T12:06:33.982Z,26.30
2018-04-15T12:09:01.463Z,27.33
2018-04-15T12:11:29.016Z,25.33
2018-04-15T12:13:56.555Z,28.67
2018-04-15T12:16:24.121Z,29.90
2018-04-15T12:18:52.370Z,28.30
2018-04-15T12:21:19.834Z,32.23
2018-04-15T12:24:06.460Z,31.47
2018-04-15T12:26:34.758Z,32.53
2018-04-15T12:29:02.292Z,28.70
2018-04-15T12:31:29.746Z,30.60
2018-04-15T12:33:57.288Z,28.17
2018-04-15T12:36:24.761Z,33.90
2018-04-15T12:38:52.902Z,32.30
2018-04-15T12:41:20.434Z,34.63
2018-04-15T12:43:47.949Z,33.80
2018-04-15T12:46:15.435Z,34.20
2018-04-15T12:48:43.686Z,36.10
2018-04-15T12:51:11.170Z,35.07
2018-04-15T12:53:39.472Z,32.80
2018-04-15T12:56:06.955Z,34.63
2018-04-15T12:58:34.440Z,35.30
2018-04-15T13:01:01.928Z,33.43
2018-04-15T13:03:30.257Z,31.80
2018-04-15T13:05:57.758Z,30.70
2018-04-15T13:08:26.005Z,30.30
2018-04-15T13:10:53.482Z,32.13
2018-04-15T13:13:21.010Z,29.90
2018-04-15T13:15:48.513Z,27.70
2018-04-15T13:18:16.780Z,29.20
2018-04-15T13:20:44.255Z,26.20
2018-04-15T13:23:12.545Z,28.00
2018-04-15T13:25:40.812Z,29.00
2018-04-15T13:28:09.114Z,27.30
2018-04-15T13:30:36.688Z,27.60
2018-04-15T13:33:04.219Z,27.07
2018-04-15T13:35:32.249Z,26.90
2018-04-15T13:37:59.758Z,25.03
2018-04-15T13:40:27.238Z,28.30
2018-04-15T13:42:54.764Z,24.20
2018-04-15T13:45:22.345Z,27.70
2018-04-15T13:47:49.813Z,27.83
2018-04-15T13:50:17.358Z,28.10
2018-04-15T13:52:44.870Z,27.47
2018-04-15T13:55:12.393Z,28.53
2018-04-15T13:57:39.919Z,27.40
2018-04-15T14:00:07.435Z,28.57
2018-04-15T14:02:35.329Z,25.80
2018-04-15T14:05:02.891Z,28.07
2018-04-15T14:07:31.007Z,28.30
2018-04-15T14:09:58.567Z,27.17
2018-04-15T14:12:26.120Z,27.10
2018-04-15T14:14:53.690Z,30.17
2018-04-15T14:17:21.242Z,28.20
2018-04-15T14:19:49.405Z,26.20
2018-04-15T14:22:17.686Z,26.33
2018-04-15T14:24:45.218Z,28.13
2018-04-15T14:27:12.764Z,27.40
2018-04-15T14:29:40.333Z,29.83
2018-04-15T14:32:07.829Z,27.07
2018-04-15T14:34:35.356Z,27.33
2018-04-15T14:37:02.896Z,26.53
2018-04-15T14:39:30.418Z,28.63
2018-04-15T14:41:57.914Z,28.37
2018-04-15T14:44:26.463Z,28.90
2018-04-15T14:46:54.980Z,27.00
2018-04-15T14:49:22.498Z,29.27
2018-04-15T14:51:52.283Z,27.80
2018-04-15T14:54:19.842Z,26.17
2018-04-15T14:56:47.362Z,28.37
2018-04-15T14:59:14.896Z,27.73
2018-04-15T15:01:42.420Z,29.90
2018-04-15T15:04:10.868Z,25.93
2018-04-15T15:06:38.381Z,25.47
2018-04-15T15:09:06.711Z,24.80
2018-04-15T15:11:34.612Z,24.67
2018-04-15T15:14:02.166Z,25.20
2018-04-15T15:16:29.717Z,25.37
2018-04-15T15:18:57.238Z,26.33
2018-04-15T15:21:25.708Z,23.83
2018-04-15T15:23:54.297Z,25.13
2018-04-15T15:26:21.851Z,24.73
2018-04-15T15:28:49.405Z,24.47
2018-04-15T15:31:16.976Z,23.93
2018-04-15T15:33:45.179Z,23.43
2018-04-15T15:36:12.711Z,23.20
2018-04-15T15:38:40.217Z,25.87
2018-04-15T15:41:08.667Z,24.80
2018-04-15T15:43:36.771Z,25.43
2018-04-15T15:46:04.340Z,22.50
2018-04-15T15:48:31.859Z,24.60
2018-04-15T15:50:59.372Z,24.53
2018-04-15T15:53:26.938Z,24.80
2018-04-15T15:55:55.219Z,24.77
2018-04-15T15:58:24.447Z,23.87
2018-04-15T16:00:53.816Z,26.20
2018-04-15T16:03:21.336Z,22.37
2018-04-15T16:05:49.792Z,22.53
2018-04-15T16:08:17.493Z,22.50
2018-04-15T16:10:45.065Z,24.13
2018-04-15T16:13:12.606Z,24.87
2018-04-15T16:15:40.731Z,25.17
2018-04-15T16:18:08.996Z,25.47
2018-04-15T16:20:37.249Z,23.80
2018-04-15T16:23:05.581Z,23.77
2018-04-15T16:25:33.259Z,24.23
2018-04-15T16:28:00.791Z,23.10
2018-04-15T16:30:29.080Z,23.57
2018-04-15T16:32:57.330Z,25.73
2018-04-15T16:35:25.629Z,24.90
2018-04-15T16:37:53.106Z,25.33
2018-04-15T16:40:20.636Z,27.00
2018-04-15T16:42:48.967Z,27.03
2018-04-15T16:45:16.478Z,25.40
2018-04-15T16:47:44.825Z,25.40
2018-04-15T16:50:12.282Z,25.10
2018-04-15T16:52:39.817Z,25.40
2018-04-15T16:55:07.301Z,26.80
2018-04-15T16:57:34.757Z,27.00
2018-04-15T17:00:02.319Z,24.97
2018-04-15T17:02:29.797Z,25.20
2018-04-15T17:04:57.303Z,25.47
2018-04-15T17:07:24.896Z,25.50
2018-04-15T17:09:52.386Z,26.23
2018-04-15T17:12:20.754Z,25.43
2018-04-15T17:14:49.079Z,25.63
2018-04-15T17:17:16.653Z,28.33
2018-04-15T17:19:44.164Z,25.17
2018-04-15T17:22:12.411Z,26.07
2018-04-15T17:24:40.362Z,27.07
2018-04-15T17:27:07.846Z,27.77
2018-04-15T17:29:35.326Z,27.40
2018-04-15T17:32:04.636Z,24.87
2018-04-15T17:34:32.909Z,27.60
2018-04-15T17:37:01.174Z,25.17
2018-04-15T17:39:28.717Z,27.17
2018-04-15T17:41:56.231Z,27.23
2018-04-15T17:44:23.808Z,27.30
2018-04-15T17:46:51.292Z,24.30
2018-04-15T17:49:18.820Z,27.43
2018-04-15T17:51:46.782Z,29.00
2018-04-15T17:54:14.730Z,28.17
2018-04-15T17:56:43.028Z,27.77
2018-04-15T17:59:10.586Z,26.60
2018-04-15T18:01:38.057Z,29.03
2018-04-15T18:04:05.647Z,26.57
2018-04-15T18:06:33.137Z,25.30
2018-04-15T18:09:01.386Z,25.80
2018-04-15T18:11:28.917Z,25.80
2018-04-15T18:13:56.455Z,25.43
2018-04-15T18:16:24.008Z,25.83
2018-04-15T18:18:52.230Z,25.70
2018-04-15T18:21:19.772Z,26.53
2018-04-15T18:23:47.239Z,23.70
2018-04-15T18:26:14.830Z,28.00
2018-04-15T18:28:42.309Z,25.50
2018-04-15T18:31:10.580Z,24.27
2018-04-15T18:33:38.869Z,26.10
2018-04-15T18:36:07.211Z,26.20
2018-04-15T18:38:34.753Z,28.70
2018-04-15T18:41:02.272Z,28.83
2018-04-15T18:43:30.572Z,29.13
2018-04-15T18:45:58.086Z,28.37
2018-04-15T18:48:25.648Z,27.27
2018-04-15T18:50:53.169Z,26.73
2018-04-15T18:53:20.668Z,26.20
2018-04-15T18:55:49.353Z,31.07
2018-04-15T18:58:16.915Z,27.87
2018-04-15T19:00:44.734Z,29.83
2018-04-15T19:03:12.244Z,26.00
2018-04-15T19:05:39.743Z,29.40
2018-04-15T19:08:07.264Z,28.90
2018-04-15T19:10:34.753Z,27.80
2018-04-15T19:13:02.221Z,29.57
2018-04-15T19:15:29.803Z,29.30
2018-04-15T19:17:57.303Z,28.53
2018-04-15T19:20:24.800Z,31.13
2018-04-15T19:22:52.283Z,31.27
2018-04-15T19:25:19.773Z,32.23
2018-04-15T19:27:47.238Z,30.63
2018-04-15T19:30:14.755Z,29.20
2018-04-15T19:32:42.230Z,29.03
2018-04-15T19:35:09.720Z,31.53
2018-04-15T19:37:37.993Z,29.63
2018-04-15T19:40:05.512Z,29.13
2018-04-15T19:42:33.055Z,29.47
2018-04-15T19:45:00.517Z,29.10
2018-04-15T19:47:28.005Z,29.23
2018-04-15T19:49:55.523Z,28.80
2018-04-15T19:52:23.077Z,29.93
2018-04-15T19:54:50.538Z,27.37
2018-04-15T19:57:18.060Z,28.87
2018-04-15T19:59:45.533Z,26.00
2018-04-15T20:02:13.825Z,28.93
2018-04-15T20:04:41.312Z,29.00
2018-04-15T20:07:08.864Z,30.13
2018-04-15T20:09:36.346Z,30.10
2018-04-15T20:12:03.912Z,29.37
2018-04-15T20:14:31.397Z,30.53
2018-04-15T20:16:58.887Z,29.33
2018-04-15T20:19:26.357Z,30.40
2018-04-15T20:21:53.854Z,28.27
2018-04-15T20:24:21.321Z,26.80
2018-04-15T20:26:48.816Z,27.57
2018-04-15T20:29:17.070Z,27.93
2018-04-15T20:31:44.630Z,30.73
2018-04-15T20:34:12.139Z,31.10
2018-04-15T20:36:39.647Z,28.17
2018-04-15T20:39:07.189Z,30.10
2018-04-15T20:41:34.675Z,30.97
2018-04-15T20:44:02.908Z,30.20
2018-04-15T20:46:30.573Z,27.50
2018-04-15T20:48:58.063Z,28.70
2018-04-15T20:51:25.546Z,26.90
2018-04-15T20:53:53.774Z,27.17
2018-04-15T20:56:21.252Z,28.67
2018-04-15T20:58:48.726Z,31.00
2018-04-15T21:01:17.370Z,25.87
2018-04-15T21:03:44.826Z,27.90
2018-04-15T21:06:12.327Z,30.10
2018-04-15T21:08:39.796Z,30.17
2018-04-15T21:11:08.105Z,30.10
2018-04-15T21:13:35.615Z,27.70
2018-04-15T21:16:03.149Z,30.03
2018-04-15T21:18:30.617Z,30.27
2018-04-15T21:20:58.093Z,29.90
2018-04-15T21:23:25.587Z,27.80
2018-04-15T21:25:53.092Z,28.60
2018-04-15T21:28:20.575Z,29.57
2018-04-15T21:30:48.064Z,27.50
2018-04-15T21:33:15.532Z,28.10
2018-04-15T21:35:43.015Z,27.37
2018-04-15T21:38:10.506Z,29.23
2018-04-15T21:40:37.982Z,29.03
2018-04-15T21:43:06.226Z,31.13
2018-04-15T21:45:33.693Z,31.10
2018-04-15T21:48:01.191Z,30.27
2018-04-15T21:50:28.670Z,31.93
2018-04-15T21:52:56.150Z,32.90
2018-04-15T21:55:23.620Z,28.83
2018-04-15T21:57:51.098Z,31.40
2018-04-15T22:00:19.342Z,33.53
2018-04-15T22:02:46.828Z,30.73
2018-04-15T22:05:14.311Z,28.80
2018-04-15T22:07:42.555Z,29.80
2018-04-15T22:10:10.032Z,28.40
2018-04-15T22:12:38.303Z,31.37
2018-04-15T22:15:05.790Z,31.43
2018-04-15T22:17:33.274Z,30.70
2018-04-15T22:20:00.751Z,29.67
2018-04-15T22:22:28.232Z,31.60
2018-04-15T22:24:55.731Z,30.90
2018-04-15T22:27:23.238Z,32.87
2018-04-15T22:29:50.707Z,33.27
2018-04-15T22:32:18.189Z,30.90
2018-04-15T22:34:46.428Z,31.00
2018-04-15T22:37:13.918Z,31.27
2018-04-15T22:39:42.170Z,31.40
2018-04-15T22:42:09.636Z,29.67
2018-04-15T22:44:37.119Z,29.90
2018-04-15T22:47:05.353Z,31.10
2018-04-15T22:49:32.842Z,29.27
2018-04-15T22:52:01.097Z,28.90
2018-04-15T22:54:28.575Z,28.77
2018-04-15T22:57:10.934Z,28.60
2018-04-15T22:59:38.402Z,27.97
2018-04-15T23:02:05.903Z,32.57
2018-04-15T23:04:34.137Z,32.00
2018-04-15T23:07:01.723Z,29.93
2018-04-15T23:09:29.201Z,30.90
2018-04-15T23:11:57.450Z,28.87
2018-04-15T23:14:24.931Z,31.43
2018-04-15T23:16:53.236Z,32.10
2018-04-15T23:19:20.716Z,33.40
2018-04-15T23:21:48.195Z,31.73
2018-04-15T23:24:15.667Z,30.00
2018-04-15T23:26:43.144Z,29.57
2018-04-15T23:29:11.390Z,30.10
2018-04-15T23:31:38.886Z,30.63
2018-04-15T23:34:07.113Z,30.00
2018-04-15T23:36:34.609Z,30.57
2018-04-15T23:39:02.091Z,30.93
2018-04-15T23:41:30.331Z,31.30
2018-04-15T23:43:57.823Z,29.30
2018-04-15T23:46:26.054Z,29.20
2018-04-15T23:48:53.533Z,28.87
2018-04-15T23:51:21.015Z,29.93
2018-04-15T23:53:49.258Z,26.93
2018-04-15T23:56:16.730Z,29.43
2018-04-15T23:58:44.214Z,27.60
